sensor_id;sensor_type;location;lat;lon;timestamp;pressure;altitude;pressure_sealevel;temperature;humidity
74334;BME280;62753;40.394;-80.022;2023-07-09T00:00:13;96697.10;;;36.01;23.26
74334;BME280;62753;40.394;-80.022;2023-07-09T00:02:31;96699.91;;;36.24;22.73
74334;BME280;62753;40.394;-80.022;2023-07-09T00:04:57;96702.94;;;36.04;23.20
74334;BME280;62753;40.394;-80.022;2023-07-09T00:07:26;96703.19;;;35.81;23.86
74334;BME280;62753;40.394;-80.022;2023-07-09T00:09:48;96694.62;;;36.36;23.02
74334;BME280;62753;40.394;-80.022;2023-07-09T00:12:14;96698.19;;;36.13;23.50
74334;BME280;62753;40.394;-80.022;2023-07-09T00:14:38;96700.15;;;36.12;23.56
74334;BME280;62753;40.394;-80.022;2023-07-09T00:17:09;96707.22;;;35.80;23.35
74334;BME280;62753;40.394;-80.022;2023-07-09T00:19:30;96709.25;;;35.84;23.41
74334;BME280;62753;40.394;-80.022;2023-07-09T00:21:55;96709.74;;;35.73;23.12
74334;BME280;62753;40.394;-80.022;2023-07-09T00:24:20;96715.74;;;35.97;23.00
74334;BME280;62753;40.394;-80.022;2023-07-09T00:26:45;96714.31;;;35.69;23.17
74334;BME280;62753;40.394;-80.022;2023-07-09T00:29:11;96702.94;;;35.42;23.87
74334;BME280;62753;40.394;-80.022;2023-07-09T00:31:35;96703.06;;;35.50;23.45
74334;BME280;62753;40.394;-80.022;2023-07-09T00:34:01;96707.55;;;35.50;23.50
74334;BME280;62753;40.394;-80.022;2023-07-09T00:36:29;96704.88;;;36.08;23.24
74334;BME280;62753;40.394;-80.022;2023-07-09T00:38:52;96704.06;;;36.26;23.22
74334;BME280;62753;40.394;-80.022;2023-07-09T00:41:19;96710.39;;;35.79;23.73
74334;BME280;62753;40.394;-80.022;2023-07-09T00:43:42;96712.03;;;35.75;23.92
74334;BME280;62753;40.394;-80.022;2023-07-09T00:46:16;96718.39;;;35.49;23.79
74334;BME280;62753;40.394;-80.022;2023-07-09T00:48:34;96728.11;;;35.53;23.73
74334;BME280;62753;40.394;-80.022;2023-07-09T00:51:00;96736.41;;;35.66;23.81
74334;BME280;62753;40.394;-80.022;2023-07-09T00:53:29;96737.40;;;35.62;23.90
74334;BME280;62753;40.394;-80.022;2023-07-09T00:55:55;96738.42;;;35.81;24.21
74334;BME280;62753;40.394;-80.022;2023-07-09T00:58:16;96737.87;;;35.46;24.18
74334;BME280;62753;40.394;-80.022;2023-07-09T01:00:45;96740.11;;;35.45;24.34
74334;BME280;62753;40.394;-80.022;2023-07-09T01:03:08;96740.65;;;35.10;24.45
74334;BME280;62753;40.394;-80.022;2023-07-09T01:05:32;96735.15;;;35.43;23.98
74334;BME280;62753;40.394;-80.022;2023-07-09T01:07:57;96733.26;;;35.29;24.02
74334;BME280;62753;40.394;-80.022;2023-07-09T01:10:24;96729.57;;;35.07;24.43
74334;BME280;62753;40.394;-80.022;2023-07-09T01:12:49;96732.13;;;34.82;24.65
74334;BME280;62753;40.394;-80.022;2023-07-09T01:15:14;96730.45;;;34.97;24.85
74334;BME280;62753;40.394;-80.022;2023-07-09T01:17:39;96732.61;;;35.03;24.62
74334;BME280;62753;40.394;-80.022;2023-07-09T01:20:07;96737.31;;;34.79;24.69
74334;BME280;62753;40.394;-80.022;2023-07-09T01:22:30;96739.07;;;35.13;24.66
74334;BME280;62753;40.394;-80.022;2023-07-09T01:24:58;96745.41;;;34.72;24.87
74334;BME280;62753;40.394;-80.022;2023-07-09T01:27:24;96745.73;;;34.85;24.69
74334;BME280;62753;40.394;-80.022;2023-07-09T01:29:47;96746.49;;;35.37;24.70
74334;BME280;62753;40.394;-80.022;2023-07-09T01:32:13;96753.04;;;35.18;24.60
74334;BME280;62753;40.394;-80.022;2023-07-09T01:34:37;96757.02;;;35.21;24.81
74334;BME280;62753;40.394;-80.022;2023-07-09T01:37:02;96758.47;;;34.47;25.21
74334;BME280;62753;40.394;-80.022;2023-07-09T01:39:28;96752.57;;;35.12;25.27
74334;BME280;62753;40.394;-80.022;2023-07-09T01:41:52;96755.62;;;34.73;25.23
74334;BME280;62753;40.394;-80.022;2023-07-09T01:44:18;96762.59;;;34.70;25.43
74334;BME280;62753;40.394;-80.022;2023-07-09T01:46:43;96767.23;;;34.19;25.49
74334;BME280;62753;40.394;-80.022;2023-07-09T01:49:08;96766.98;;;35.14;25.19
74334;BME280;62753;40.394;-80.022;2023-07-09T01:51:34;96769.79;;;34.36;25.37
74334;BME280;62753;40.394;-80.022;2023-07-09T01:54:00;96769.15;;;34.57;25.58
74334;BME280;62753;40.394;-80.022;2023-07-09T01:56:26;96771.49;;;34.46;25.50
74334;BME280;62753;40.394;-80.022;2023-07-09T01:58:51;96769.83;;;34.49;25.56
74334;BME280;62753;40.394;-80.022;2023-07-09T02:01:16;96765.65;;;34.76;25.29
74334;BME280;62753;40.394;-80.022;2023-07-09T02:03:42;96767.86;;;34.73;25.37
74334;BME280;62753;40.394;-80.022;2023-07-09T02:06:07;96772.33;;;34.72;25.62
74334;BME280;62753;40.394;-80.022;2023-07-09T02:08:33;96778.58;;;34.85;25.57
74334;BME280;62753;40.394;-80.022;2023-07-09T02:10:57;96779.32;;;34.76;25.87
74334;BME280;62753;40.394;-80.022;2023-07-09T02:13:22;96781.58;;;34.48;25.84
74334;BME280;62753;40.394;-80.022;2023-07-09T02:15:47;96784.86;;;34.64;25.97
74334;BME280;62753;40.394;-80.022;2023-07-09T02:18:14;96785.90;;;34.00;26.59
74334;BME280;62753;40.394;-80.022;2023-07-09T02:20:39;96785.39;;;34.49;26.08
74334;BME280;62753;40.394;-80.022;2023-07-09T02:23:05;96789.95;;;34.44;26.09
74334;BME280;62753;40.394;-80.022;2023-07-09T02:25:29;96792.65;;;33.62;26.73
74334;BME280;62753;40.394;-80.022;2023-07-09T02:27:55;96796.83;;;34.35;26.25
74334;BME280;62753;40.394;-80.022;2023-07-09T02:30:20;96795.66;;;34.42;26.12
74334;BME280;62753;40.394;-80.022;2023-07-09T02:32:45;96800.85;;;34.19;26.41
74334;BME280;62753;40.394;-80.022;2023-07-09T02:35:11;96800.51;;;34.28;26.15
74334;BME280;62753;40.394;-80.022;2023-07-09T02:37:36;96805.93;;;34.43;26.29
74334;BME280;62753;40.394;-80.022;2023-07-09T02:40:01;96812.35;;;34.25;26.45
74334;BME280;62753;40.394;-80.022;2023-07-09T02:42:26;96818.29;;;34.23;26.24
74334;BME280;62753;40.394;-80.022;2023-07-09T02:44:52;96817.51;;;34.06;26.48
74334;BME280;62753;40.394;-80.022;2023-07-09T02:47:19;96814.77;;;34.40;26.28
74334;BME280;62753;40.394;-80.022;2023-07-09T02:49:44;96819.00;;;34.50;25.93
74334;BME280;62753;40.394;-80.022;2023-07-09T02:52:09;96822.45;;;34.15;26.47
74334;BME280;62753;40.394;-80.022;2023-07-09T02:54:35;96820.46;;;34.50;26.44
74334;BME280;62753;40.394;-80.022;2023-07-09T02:56:59;96815.25;;;34.55;26.23
74334;BME280;62753;40.394;-80.022;2023-07-09T02:59:24;96815.64;;;34.21;26.69
74334;BME280;62753;40.394;-80.022;2023-07-09T03:01:50;96807.68;;;34.13;26.54
74334;BME280;62753;40.394;-80.022;2023-07-09T03:04:16;96805.41;;;34.26;26.87
74334;BME280;62753;40.394;-80.022;2023-07-09T03:06:41;96806.57;;;34.35;26.65
74334;BME280;62753;40.394;-80.022;2023-07-09T03:09:07;96804.99;;;34.16;26.77
74334;BME280;62753;40.394;-80.022;2023-07-09T03:11:34;96801.49;;;34.37;26.64
74334;BME280;62753;40.394;-80.022;2023-07-09T03:13:57;96800.80;;;34.44;26.81
74334;BME280;62753;40.394;-80.022;2023-07-09T03:16:25;96797.77;;;34.43;26.56
74334;BME280;62753;40.394;-80.022;2023-07-09T03:18:48;96793.75;;;34.09;27.20
74334;BME280;62753;40.394;-80.022;2023-07-09T03:21:14;96791.12;;;34.20;26.84
74334;BME280;62753;40.394;-80.022;2023-07-09T03:23:39;96789.60;;;34.06;27.43
74334;BME280;62753;40.394;-80.022;2023-07-09T03:26:04;96790.23;;;34.09;27.25
74334;BME280;62753;40.394;-80.022;2023-07-09T03:28:31;96789.96;;;34.55;26.56
74334;BME280;62753;40.394;-80.022;2023-07-09T03:30:55;96791.66;;;34.39;26.88
74334;BME280;62753;40.394;-80.022;2023-07-09T03:33:21;96794.10;;;34.18;27.33
74334;BME280;62753;40.394;-80.022;2023-07-09T03:35:47;96792.42;;;34.17;27.09
74334;BME280;62753;40.394;-80.022;2023-07-09T03:38:12;96789.43;;;34.52;26.71
74334;BME280;62753;40.394;-80.022;2023-07-09T03:40:37;96789.68;;;34.33;26.67
74334;BME280;62753;40.394;-80.022;2023-07-09T03:43:02;96791.95;;;34.45;26.92
74334;BME280;62753;40.394;-80.022;2023-07-09T03:45:27;96794.16;;;34.38;26.60
74334;BME280;62753;40.394;-80.022;2023-07-09T03:47:53;96794.15;;;34.80;26.35
74334;BME280;62753;40.394;-80.022;2023-07-09T03:50:18;96784.74;;;35.06;26.22
74334;BME280;62753;40.394;-80.022;2023-07-09T03:52:44;96788.84;;;34.58;26.93
74334;BME280;62753;40.394;-80.022;2023-07-09T03:55:10;96787.86;;;34.47;27.09
74334;BME280;62753;40.394;-80.022;2023-07-09T03:57:35;96788.13;;;34.42;27.18
74334;BME280;62753;40.394;-80.022;2023-07-09T03:59:59;96784.55;;;34.13;27.41
74334;BME280;62753;40.394;-80.022;2023-07-09T04:02:25;96783.16;;;34.13;27.59
74334;BME280;62753;40.394;-80.022;2023-07-09T04:04:51;96783.20;;;34.20;28.36
74334;BME280;62753;40.394;-80.022;2023-07-09T04:07:16;96779.42;;;34.26;28.36
74334;BME280;62753;40.394;-80.022;2023-07-09T04:09:41;96774.22;;;33.91;28.72
74334;BME280;62753;40.394;-80.022;2023-07-09T04:12:08;96772.78;;;33.80;28.98
74334;BME280;62753;40.394;-80.022;2023-07-09T04:14:32;96766.14;;;33.33;29.17
74334;BME280;62753;40.394;-80.022;2023-07-09T04:16:58;96760.34;;;33.48;29.45
74334;BME280;62753;40.394;-80.022;2023-07-09T04:19:23;96757.28;;;32.88;29.90
74334;BME280;62753;40.394;-80.022;2023-07-09T04:21:48;96752.21;;;32.65;30.53
74334;BME280;62753;40.394;-80.022;2023-07-09T04:24:16;96752.13;;;32.69;30.92
74334;BME280;62753;40.394;-80.022;2023-07-09T04:26:41;96752.09;;;32.82;30.87
74334;BME280;62753;40.394;-80.022;2023-07-09T04:29:05;96758.02;;;32.14;31.13
74334;BME280;62753;40.394;-80.022;2023-07-09T04:31:30;96760.79;;;31.99;32.26
74334;BME280;62753;40.394;-80.022;2023-07-09T04:33:55;96760.37;;;31.58;32.37
74334;BME280;62753;40.394;-80.022;2023-07-09T04:36:21;96757.21;;;31.86;32.70
74334;BME280;62753;40.394;-80.022;2023-07-09T04:38:46;96754.70;;;31.36;33.03
74334;BME280;62753;40.394;-80.022;2023-07-09T04:41:11;96752.22;;;31.32;33.30
74334;BME280;62753;40.394;-80.022;2023-07-09T04:43:37;96749.59;;;31.50;32.58
74334;BME280;62753;40.394;-80.022;2023-07-09T04:46:02;96750.94;;;30.84;33.86
74334;BME280;62753;40.394;-80.022;2023-07-09T04:48:28;96751.23;;;30.94;33.64
74334;BME280;62753;40.394;-80.022;2023-07-09T04:50:54;96752.52;;;31.46;33.21
74334;BME280;62753;40.394;-80.022;2023-07-09T04:53:20;96751.34;;;31.75;32.75
74334;BME280;62753;40.394;-80.022;2023-07-09T04:55:44;96752.64;;;31.96;32.30
74334;BME280;62753;40.394;-80.022;2023-07-09T04:58:10;96744.25;;;32.21;31.64
74334;BME280;62753;40.394;-80.022;2023-07-09T05:00:35;96743.27;;;32.33;31.45
74334;BME280;62753;40.394;-80.022;2023-07-09T05:03:01;96742.95;;;31.51;32.21
74334;BME280;62753;40.394;-80.022;2023-07-09T05:05:26;96740.59;;;31.51;32.79
74334;BME280;62753;40.394;-80.022;2023-07-09T05:07:52;96741.23;;;31.42;32.63
74334;BME280;62753;40.394;-80.022;2023-07-09T05:10:17;96738.07;;;31.68;32.67
74334;BME280;62753;40.394;-80.022;2023-07-09T05:12:49;96736.76;;;31.36;33.34
74334;BME280;62753;40.394;-80.022;2023-07-09T05:15:09;96735.87;;;31.24;33.02
74334;BME280;62753;40.394;-80.022;2023-07-09T05:17:34;96734.99;;;31.35;32.89
74334;BME280;62753;40.394;-80.022;2023-07-09T05:19:59;96734.15;;;31.88;32.54
74334;BME280;62753;40.394;-80.022;2023-07-09T05:22:25;96733.56;;;31.83;31.88
74334;BME280;62753;40.394;-80.022;2023-07-09T05:24:50;96732.02;;;32.07;32.02
74334;BME280;62753;40.394;-80.022;2023-07-09T05:27:16;96729.82;;;32.01;31.87
74334;BME280;62753;40.394;-80.022;2023-07-09T05:29:42;96730.90;;;32.09;31.78
74334;BME280;62753;40.394;-80.022;2023-07-09T05:32:07;96728.74;;;31.95;32.03
74334;BME280;62753;40.394;-80.022;2023-07-09T05:34:32;96723.76;;;31.38;31.96
74334;BME280;62753;40.394;-80.022;2023-07-09T05:36:57;96723.74;;;31.70;32.07
74334;BME280;62753;40.394;-80.022;2023-07-09T05:39:23;96723.15;;;31.97;31.94
74334;BME280;62753;40.394;-80.022;2023-07-09T05:41:49;96726.40;;;31.71;32.35
74334;BME280;62753;40.394;-80.022;2023-07-09T05:44:14;96722.94;;;31.52;33.45
74334;BME280;62753;40.394;-80.022;2023-07-09T05:46:40;96722.21;;;30.99;33.76
74334;BME280;62753;40.394;-80.022;2023-07-09T05:49:09;96721.92;;;31.65;33.14
74334;BME280;62753;40.394;-80.022;2023-07-09T05:51:30;96724.04;;;31.13;32.83
74334;BME280;62753;40.394;-80.022;2023-07-09T05:53:56;96725.67;;;31.92;32.52
74334;BME280;62753;40.394;-80.022;2023-07-09T05:56:21;96721.98;;;32.08;32.68
74334;BME280;62753;40.394;-80.022;2023-07-09T05:58:46;96722.46;;;31.09;33.47
74334;BME280;62753;40.394;-80.022;2023-07-09T06:01:12;96722.97;;;30.96;34.06
74334;BME280;62753;40.394;-80.022;2023-07-09T06:03:37;96720.56;;;31.19;33.65
74334;BME280;62753;40.394;-80.022;2023-07-09T06:06:02;96717.64;;;31.23;33.76
74334;BME280;62753;40.394;-80.022;2023-07-09T06:08:28;96717.98;;;31.46;33.56
74334;BME280;62753;40.394;-80.022;2023-07-09T06:10:56;96716.16;;;31.49;33.48
74334;BME280;62753;40.394;-80.022;2023-07-09T06:13:20;96718.99;;;31.29;33.92
74334;BME280;62753;40.394;-80.022;2023-07-09T06:15:44;96719.68;;;31.17;33.62
74334;BME280;62753;40.394;-80.022;2023-07-09T06:18:10;96718.19;;;31.90;33.14
74334;BME280;62753;40.394;-80.022;2023-07-09T06:20:36;96717.66;;;31.90;32.37
74334;BME280;62753;40.394;-80.022;2023-07-09T06:23:00;96718.25;;;31.91;32.37
74334;BME280;62753;40.394;-80.022;2023-07-09T06:25:27;96722.63;;;31.92;32.14
74334;BME280;62753;40.394;-80.022;2023-07-09T06:27:52;96723.64;;;32.09;31.60
74334;BME280;62753;40.394;-80.022;2023-07-09T06:30:18;96720.23;;;31.91;31.90
74334;BME280;62753;40.394;-80.022;2023-07-09T06:32:44;96718.57;;;31.90;31.87
74334;BME280;62753;40.394;-80.022;2023-07-09T06:35:09;96719.54;;;32.44;31.34
74334;BME280;62753;40.394;-80.022;2023-07-09T06:37:34;96717.34;;;31.74;31.91
74334;BME280;62753;40.394;-80.022;2023-07-09T06:40:00;96716.05;;;31.82;31.80
74334;BME280;62753;40.394;-80.022;2023-07-09T06:42:25;96716.64;;;32.10;31.45
74334;BME280;62753;40.394;-80.022;2023-07-09T06:44:50;96711.40;;;31.62;32.13
74334;BME280;62753;40.394;-80.022;2023-07-09T06:47:15;96709.27;;;31.75;32.28
74334;BME280;62753;40.394;-80.022;2023-07-09T06:49:40;96707.69;;;31.97;32.05
74334;BME280;62753;40.394;-80.022;2023-07-09T06:52:07;96711.55;;;31.83;32.44
74334;BME280;62753;40.394;-80.022;2023-07-09T06:54:32;96712.92;;;31.35;32.30
74334;BME280;62753;40.394;-80.022;2023-07-09T06:56:57;96714.79;;;30.94;33.30
74334;BME280;62753;40.394;-80.022;2023-07-09T06:59:22;96714.31;;;30.44;34.87
74334;BME280;62753;40.394;-80.022;2023-07-09T07:01:48;96716.92;;;31.06;33.74
74334;BME280;62753;40.394;-80.022;2023-07-09T07:04:13;96719.25;;;31.12;33.15
74334;BME280;62753;40.394;-80.022;2023-07-09T07:06:39;96722.89;;;31.31;33.61
74334;BME280;62753;40.394;-80.022;2023-07-09T07:09:05;96728.72;;;31.21;33.78
74334;BME280;62753;40.394;-80.022;2023-07-09T07:11:30;96731.58;;;31.34;33.45
74334;BME280;62753;40.394;-80.022;2023-07-09T07:13:56;96731.04;;;31.11;33.07
74334;BME280;62753;40.394;-80.022;2023-07-09T07:16:22;96730.38;;;30.87;32.96
74334;BME280;62753;40.394;-80.022;2023-07-09T07:18:47;96727.12;;;31.74;32.63
74334;BME280;62753;40.394;-80.022;2023-07-09T07:21:13;96729.44;;;31.43;32.20
74334;BME280;62753;40.394;-80.022;2023-07-09T07:23:38;96725.49;;;31.97;31.68
74334;BME280;62753;40.394;-80.022;2023-07-09T07:26:04;96725.58;;;31.80;32.05
74334;BME280;62753;40.394;-80.022;2023-07-09T07:28:30;96720.08;;;30.52;33.97
74334;BME280;62753;40.394;-80.022;2023-07-09T07:31:00;96717.77;;;30.64;33.95
74334;BME280;62753;40.394;-80.022;2023-07-09T07:33:21;96718.80;;;30.72;34.07
74334;BME280;62753;40.394;-80.022;2023-07-09T07:35:46;96718.32;;;31.28;33.24
74334;BME280;62753;40.394;-80.022;2023-07-09T07:38:11;96718.71;;;31.21;33.27
74334;BME280;62753;40.394;-80.022;2023-07-09T07:40:37;96718.61;;;30.23;34.17
74334;BME280;62753;40.394;-80.022;2023-07-09T07:43:02;96715.46;;;30.56;34.51
74334;BME280;62753;40.394;-80.022;2023-07-09T07:45:28;96713.45;;;30.94;33.87
74334;BME280;62753;40.394;-80.022;2023-07-09T07:47:53;96716.96;;;30.35;34.52
74334;BME280;62753;40.394;-80.022;2023-07-09T07:50:18;96721.88;;;30.59;34.42
74334;BME280;62753;40.394;-80.022;2023-07-09T07:52:44;96721.29;;;30.53;34.50
74334;BME280;62753;40.394;-80.022;2023-07-09T07:55:10;96722.58;;;30.45;35.36
74334;BME280;62753;40.394;-80.022;2023-07-09T07:57:36;96722.98;;;29.97;35.83
74334;BME280;62753;40.394;-80.022;2023-07-09T08:00:01;96718.76;;;29.61;35.67
74334;BME280;62753;40.394;-80.022;2023-07-09T08:02:26;96707.08;;;30.41;34.87
74334;BME280;62753;40.394;-80.022;2023-07-09T08:04:52;96705.79;;;30.37;34.90
74334;BME280;62753;40.394;-80.022;2023-07-09T08:07:18;96706.57;;;30.47;34.27
74334;BME280;62753;40.394;-80.022;2023-07-09T08:09:43;96703.88;;;30.52;34.09
74334;BME280;62753;40.394;-80.022;2023-07-09T08:12:10;96707.21;;;31.16;33.06
74334;BME280;62753;40.394;-80.022;2023-07-09T08:14:35;96709.57;;;30.82;33.87
74334;BME280;62753;40.394;-80.022;2023-07-09T08:16:59;96710.94;;;30.75;33.72
74334;BME280;62753;40.394;-80.022;2023-07-09T08:19:25;96711.91;;;30.78;33.69
74334;BME280;62753;40.394;-80.022;2023-07-09T08:21:51;96715.40;;;31.31;32.51
74334;BME280;62753;40.394;-80.022;2023-07-09T08:24:16;96717.05;;;31.67;32.50
74334;BME280;62753;40.394;-80.022;2023-07-09T08:26:42;96714.47;;;31.23;33.01
74334;BME280;62753;40.394;-80.022;2023-07-09T08:29:07;96715.22;;;31.48;32.91
74334;BME280;62753;40.394;-80.022;2023-07-09T08:31:32;96717.17;;;31.49;32.43
74334;BME280;62753;40.394;-80.022;2023-07-09T08:33:57;96716.08;;;31.80;31.95
74334;BME280;62753;40.394;-80.022;2023-07-09T08:36:24;96721.78;;;31.34;32.28
74334;BME280;62753;40.394;-80.022;2023-07-09T08:38:49;96718.99;;;31.32;32.06
74334;BME280;62753;40.394;-80.022;2023-07-09T08:41:25;96713.40;;;31.43;31.84
74334;BME280;62753;40.394;-80.022;2023-07-09T08:43:47;96710.40;;;31.85;31.84
74334;BME280;62753;40.394;-80.022;2023-07-09T08:46:18;96707.94;;;32.10;31.35
74334;BME280;62753;40.394;-80.022;2023-07-09T08:48:32;96714.48;;;32.03;31.68
74334;BME280;62753;40.394;-80.022;2023-07-09T08:50:59;96723.46;;;31.61;31.80
74334;BME280;62753;40.394;-80.022;2023-07-09T08:53:25;96731.23;;;31.57;31.86
74334;BME280;62753;40.394;-80.022;2023-07-09T08:55:48;96735.22;;;31.39;32.24
74334;BME280;62753;40.394;-80.022;2023-07-09T08:58:17;96738.54;;;31.11;32.55
74334;BME280;62753;40.394;-80.022;2023-07-09T09:00:43;96738.85;;;30.81;33.11
74334;BME280;62753;40.394;-80.022;2023-07-09T09:03:14;96736.14;;;30.28;34.21
74334;BME280;62753;40.394;-80.022;2023-07-09T09:05:31;96740.17;;;30.92;33.62
74334;BME280;62753;40.394;-80.022;2023-07-09T09:07:58;96746.76;;;30.27;34.90
74334;BME280;62753;40.394;-80.022;2023-07-09T09:10:23;96752.23;;;29.42;36.01
74334;BME280;62753;40.394;-80.022;2023-07-09T09:12:56;96748.59;;;29.94;36.22
74334;BME280;62753;40.394;-80.022;2023-07-09T09:15:14;96745.66;;;29.51;36.53
74334;BME280;62753;40.394;-80.022;2023-07-09T09:17:38;96739.71;;;29.36;37.13
74334;BME280;62753;40.394;-80.022;2023-07-09T09:20:03;96736.26;;;28.78;37.72
74334;BME280;62753;40.394;-80.022;2023-07-09T09:22:31;96736.52;;;29.03;37.42
74334;BME280;62753;40.394;-80.022;2023-07-09T09:24:58;96742.55;;;28.80;38.27
74334;BME280;62753;40.394;-80.022;2023-07-09T09:27:18;96744.65;;;28.82;38.06
74334;BME280;62753;40.394;-80.022;2023-07-09T09:29:43;96744.04;;;28.66;38.20
74334;BME280;62753;40.394;-80.022;2023-07-09T09:32:20;96742.99;;;29.41;37.34
74334;BME280;62753;40.394;-80.022;2023-07-09T09:34:34;96740.58;;;28.84;37.73
74334;BME280;62753;40.394;-80.022;2023-07-09T09:37:00;96741.88;;;29.48;37.12
74334;BME280;62753;40.394;-80.022;2023-07-09T09:39:26;96730.15;;;29.44;37.13
74334;BME280;62753;40.394;-80.022;2023-07-09T09:41:53;96719.55;;;29.86;36.42
74334;BME280;62753;40.394;-80.022;2023-07-09T09:44:19;96719.60;;;30.41;35.41
74334;BME280;62753;40.394;-80.022;2023-07-09T09:46:42;96716.86;;;29.97;35.71
74334;BME280;62753;40.394;-80.022;2023-07-09T09:49:10;96717.58;;;30.03;35.55
74334;BME280;62753;40.394;-80.022;2023-07-09T09:51:33;96723.51;;;30.30;35.09
74334;BME280;62753;40.394;-80.022;2023-07-09T09:54:00;96737.63;;;30.18;35.06
74334;BME280;62753;40.394;-80.022;2023-07-09T09:56:28;96742.22;;;30.07;35.30
74334;BME280;62753;40.394;-80.022;2023-07-09T09:58:53;96740.42;;;30.70;34.26
74334;BME280;62753;40.394;-80.022;2023-07-09T10:01:17;96742.36;;;30.75;34.11
74334;BME280;62753;40.394;-80.022;2023-07-09T10:03:40;96745.42;;;30.89;35.17
74334;BME280;62753;40.394;-80.022;2023-07-09T10:06:12;96748.06;;;30.20;35.16
74334;BME280;62753;40.394;-80.022;2023-07-09T10:08:40;96745.86;;;30.89;35.30
74334;BME280;62753;40.394;-80.022;2023-07-09T10:11:05;96748.72;;;30.83;35.04
74334;BME280;62753;40.394;-80.022;2023-07-09T10:13:28;96748.62;;;30.27;35.61
74334;BME280;62753;40.394;-80.022;2023-07-09T10:15:56;96744.77;;;30.37;35.82
74334;BME280;62753;40.394;-80.022;2023-07-09T10:18:24;96745.19;;;30.18;36.41
74334;BME280;62753;40.394;-80.022;2023-07-09T10:20:45;96743.91;;;30.28;36.47
74334;BME280;62753;40.394;-80.022;2023-07-09T10:23:15;96737.20;;;31.09;35.05
74334;BME280;62753;40.394;-80.022;2023-07-09T10:25:35;96730.36;;;30.18;36.32
74334;BME280;62753;40.394;-80.022;2023-07-09T10:28:05;96732.37;;;30.08;36.23
74334;BME280;62753;40.394;-80.022;2023-07-09T10:30:34;96739.69;;;30.23;36.33
74334;BME280;62753;40.394;-80.022;2023-07-09T10:32:57;96744.16;;;30.31;36.87
74334;BME280;62753;40.394;-80.022;2023-07-09T10:35:17;96741.52;;;29.58;36.69
74334;BME280;62753;40.394;-80.022;2023-07-09T10:37:53;96747.46;;;29.82;36.60
74334;BME280;62753;40.394;-80.022;2023-07-09T10:40:08;96755.78;;;30.22;35.93
74334;BME280;62753;40.394;-80.022;2023-07-09T10:42:32;96759.00;;;30.36;35.35
74334;BME280;62753;40.394;-80.022;2023-07-09T10:44:59;96760.34;;;30.52;35.60
74334;BME280;62753;40.394;-80.022;2023-07-09T10:47:28;96758.65;;;30.30;35.06
74334;BME280;62753;40.394;-80.022;2023-07-09T10:49:45;96758.15;;;30.59;35.31
74334;BME280;62753;40.394;-80.022;2023-07-09T10:52:17;96754.31;;;30.53;35.12
74334;BME280;62753;40.394;-80.022;2023-07-09T10:54:41;96755.30;;;30.34;35.67
74334;BME280;62753;40.394;-80.022;2023-07-09T10:57:03;96754.82;;;29.95;36.15
74334;BME280;62753;40.394;-80.022;2023-07-09T10:59:30;96756.24;;;30.45;36.60
74334;BME280;62753;40.394;-80.022;2023-07-09T11:02:00;96757.94;;;29.88;37.23
74334;BME280;62753;40.394;-80.022;2023-07-09T11:04:26;96754.33;;;29.83;37.05
74334;BME280;62753;40.394;-80.022;2023-07-09T11:06:46;96752.03;;;29.85;37.15
74334;BME280;62753;40.394;-80.022;2023-07-09T11:09:16;96753.50;;;29.01;37.35
74334;BME280;62753;40.394;-80.022;2023-07-09T11:11:39;96752.33;;;29.66;37.54
74334;BME280;62753;40.394;-80.022;2023-07-09T11:14:04;96745.25;;;29.53;37.15
74334;BME280;62753;40.394;-80.022;2023-07-09T11:16:28;96743.38;;;29.76;37.50
74334;BME280;62753;40.394;-80.022;2023-07-09T11:18:56;96739.10;;;28.89;38.82
74334;BME280;62753;40.394;-80.022;2023-07-09T11:21:17;96740.86;;;28.43;39.39
74334;BME280;62753;40.394;-80.022;2023-07-09T11:23:46;96737.64;;;28.97;38.56
74334;BME280;62753;40.394;-80.022;2023-07-09T11:26:12;96743.45;;;29.29;38.01
74334;BME280;62753;40.394;-80.022;2023-07-09T11:28:34;96744.47;;;29.49;37.57
74334;BME280;62753;40.394;-80.022;2023-07-09T11:31:05;96743.32;;;29.35;37.84
74334;BME280;62753;40.394;-80.022;2023-07-09T11:33:26;96743.59;;;29.33;37.55
74334;BME280;62753;40.394;-80.022;2023-07-09T11:35:49;96743.38;;;29.57;37.31
74334;BME280;62753;40.394;-80.022;2023-07-09T11:38:17;96743.60;;;29.46;37.20
74334;BME280;62753;40.394;-80.022;2023-07-09T11:40:45;96749.23;;;29.66;36.78
74334;BME280;62753;40.394;-80.022;2023-07-09T11:43:03;96753.71;;;29.34;36.34
74334;BME280;62753;40.394;-80.022;2023-07-09T11:45:32;96759.91;;;29.77;36.33
74334;BME280;62753;40.394;-80.022;2023-07-09T11:48:00;96767.60;;;29.79;36.01
74334;BME280;62753;40.394;-80.022;2023-07-09T11:50:24;96773.29;;;30.39;35.43
74334;BME280;62753;40.394;-80.022;2023-07-09T11:52:50;96779.60;;;30.29;35.46
74334;BME280;62753;40.394;-80.022;2023-07-09T11:55:20;96782.20;;;29.78;36.94
74334;BME280;62753;40.394;-80.022;2023-07-09T11:57:37;96789.42;;;30.04;35.93
74334;BME280;62753;40.394;-80.022;2023-07-09T12:00:02;96797.19;;;29.64;37.10
74334;BME280;62753;40.394;-80.022;2023-07-09T12:02:32;96796.27;;;30.06;36.31
74334;BME280;62753;40.394;-80.022;2023-07-09T12:04:53;96805.57;;;29.86;37.23
74334;BME280;62753;40.394;-80.022;2023-07-09T12:07:18;96809.96;;;29.92;37.29
74334;BME280;62753;40.394;-80.022;2023-07-09T12:09:47;96819.71;;;29.74;37.88
74334;BME280;62753;40.394;-80.022;2023-07-09T12:12:18;96827.94;;;29.97;37.96
74334;BME280;62753;40.394;-80.022;2023-07-09T12:14:34;96837.21;;;29.80;39.10
74334;BME280;62753;40.394;-80.022;2023-07-09T12:16:59;96846.88;;;29.47;39.02
74334;BME280;62753;40.394;-80.022;2023-07-09T12:19:25;96853.81;;;29.34;39.42
74334;BME280;62753;40.394;-80.022;2023-07-09T12:21:52;96851.11;;;29.15;39.76
74334;BME280;62753;40.394;-80.022;2023-07-09T12:24:19;96845.98;;;29.17;39.87
74334;BME280;62753;40.394;-80.022;2023-07-09T12:26:40;96846.67;;;29.04;39.81
74334;BME280;62753;40.394;-80.022;2023-07-09T12:29:09;96843.83;;;29.11;39.59